°C

Conditions at local time :  Forecast:

Nearby METAR Reports





EGKA - Shoreham-By-Sea, United Kingdom
Distance from station: ENE 4mi, 6km
Updated: Tue, 23-Apr-2024 7:50pm BST
NOT Current
Mostly Cloudy
Mostly Cloudy
 Wind from N
Wind: N 8 mph , 13 km/h
Temperature: 9°C
Wind Chill: 7°C
Dew Point: 5°C
Humidity: 76%
Barometer: 1021 hPa
Clouds: Mostly Cloudy
Visibility: 6 miles , 10 km
Cloud details: Mostly Cloudy 1433 m
2024/04/23 18:50 EGKA 231850Z 01007KT 9999 BKN047 09/05 Q1021
EGKK - London/Gatwick A, United Kingdom
Distance from station: NNE 24mi, 39km
Updated: Wed, 24-Apr-2024 3:50am BST
Mostly Cloudy
Mostly Cloudy
 Wind from NW
Wind: NW 6 mph , 9 km/h
Temperature: 6°C
Wind Chill: 4°C
Dew Point: 2°C
Humidity: 76%
Barometer: 1019 hPa
Clouds: Mostly Cloudy
Visibility: 6 miles , 10 km
Cloud details: Mostly Cloudy 1280 m
2024/04/24 02:50 EGKK 240250Z 31005KT 9999 BKN042 06/02 Q1019
 
EGLF - Farnborough, United Kingdom
Distance from station: NNW 37mi, 59km
Updated: Wed, 24-Apr-2024 3:50am BST
Clear
Clear
 Wind from WNW
Wind: WNW 3 mph , 6 km/h
Temperature: 6°C
Dew Point: 2°C
Humidity: 76%
Barometer: 1019 hPa
Clouds: Clear
Visibility: 6 miles , 10 km
2024/04/24 02:50 EGLF 240250Z AUTO 30003KT 9999 NCD 06/02 Q1019
EGVO - Odiham Raf, United Kingdom
Distance from station: NW 38mi, 61km
Updated: Wed, 24-Apr-2024 3:50am BST
Overcast
Overcast
 Wind from W
Wind: W 5 mph , 7 km/h
Temperature: 5°C
Wind Chill: 3°C
Dew Point: 2°C
Humidity: 81%
Barometer: 1019 hPa
Clouds: Overcast
Visibility: 6 miles , 10 km
Cloud details: Overcast 1615 m
2024/04/24 02:50 EGVO 240250Z AUTO 28004KT 9999 OVC053/// 05/02 Q1019